Time;durP1;ratioP1;P1;durP2;ratioP2;P2;SDS_P1;SDS_P2;PMS_P1;PMS_P2;Temp;Humidity;BMP_temperature;BMP_pressure;BME280_temperature;BME280_humidity;BME280_pressure;Samples;Min_cycle;Max_cycle;Signal;HPM_P1;HPM_P2
2023/11/11 00:02:24;;;;;;;5.75;3.70;;;;;;;14.61;54.61;98160.25;4960247;28;20034;-91
2023/11/11 00:04:50;;;;;;;8.98;3.78;;;;;;;14.64;54.66;98162.56;4976508;28;20045;-89
2023/11/11 00:07:17;;;;;;;6.80;3.00;;;;;;;14.64;54.59;98156.47;4976279;28;20117;-89
2023/11/11 00:09:42;;;;;;;6.97;3.55;;;;;;;14.65;54.73;98148.44;4993592;28;20061;-90
2023/11/11 00:12:08;;;;;;;4.53;3.10;;;;;;;14.63;54.53;98141.72;4976011;28;20112;-92
2023/11/11 00:14:34;;;;;;;5.63;2.97;;;;;;;14.68;54.51;98143.88;4979952;28;20019;-91
2023/11/11 00:17:00;;;;;;;5.05;2.97;;;;;;;14.66;54.61;98146.66;4976642;28;20528;-91
2023/11/11 00:19:25;;;;;;;4.28;3.00;;;;;;;14.65;54.58;98150.25;4960353;28;20026;-90
2023/11/11 00:21:53;;;;;;;7.25;3.38;;;;;;;14.67;54.97;98152.72;4943969;28;20039;-89
2023/11/11 00:24:19;;;;;;;8.68;3.60;;;;;;;14.63;54.95;98147.78;4963795;28;20046;-83
2023/11/11 00:26:48;;;;;;;6.65;3.13;;;;;;;14.65;54.59;98143.19;4967530;28;20023;-84
2023/11/11 00:29:13;;;;;;;4.90;2.95;;;;;;;14.63;55.08;98137.28;4952551;28;20065;-85
2023/11/11 00:31:39;;;;;;;7.75;3.30;;;;;;;14.64;54.91;98136.31;4985211;28;20054;-88
2023/11/11 00:34:06;;;;;;;4.63;3.10;;;;;;;14.64;54.98;98125.78;4989986;28;20034;-91
2023/11/11 00:36:31;;;;;;;5.38;3.08;;;;;;;14.60;55.11;98108.69;4958791;28;20023;-92
2023/11/11 00:38:57;;;;;;;3.92;2.70;;;;;;;14.65;55.06;98124.78;4972006;28;20085;-85
2023/11/11 00:41:23;;;;;;;6.18;3.10;;;;;;;14.64;55.13;98123.16;4979749;28;20035;-87
2023/11/11 00:43:48;;;;;;;6.68;2.88;;;;;;;14.64;55.27;98111.81;4966226;28;20022;-88
2023/11/11 00:46:13;;;;;;;4.90;3.17;;;;;;;14.64;55.26;98111.81;4976314;28;20022;-89
2023/11/11 00:48:41;;;;;;;5.20;2.85;;;;;;;14.64;55.16;98115.28;4943663;28;20567;-89
2023/11/11 00:51:07;;;;;;;4.85;3.25;;;;;;;14.64;55.27;98110.03;4987189;28;20026;-88
2023/11/11 00:53:33;;;;;;;4.55;3.22;;;;;;;14.64;55.35;98112.66;4942600;28;20037;-89
2023/11/11 00:56:00;;;;;;;4.00;2.88;;;;;;;14.64;55.41;98107.41;4961432;28;20027;-89
2023/11/11 00:58:25;;;;;;;7.10;3.05;;;;;;;14.65;55.40;98095.09;4976028;28;20026;-87
2023/11/11 01:00:51;;;;;;;4.35;3.03;;;;;;;14.65;55.23;98093.28;4951930;28;20031;-91
2023/11/11 01:03:17;;;;;;;7.00;3.08;;;;;;;14.63;55.60;98083.94;4985749;28;20538;-89
2023/11/11 01:05:42;;;;;;;5.20;3.08;;;;;;;14.62;55.52;98090.97;4976981;28;20042;-86
2023/11/11 01:08:09;;;;;;;5.95;3.13;;;;;;;14.56;55.59;98080.25;4979520;28;20042;-87
2023/11/11 01:10:37;;;;;;;5.55;3.30;;;;;;;14.60;55.68;98084.25;4996406;28;20548;-87
2023/11/11 01:13:06;;;;;;;6.72;3.70;;;;;;;14.59;55.59;98069.41;4979309;28;20026;-89
2023/11/11 01:15:31;;;;;;;4.32;2.88;;;;;;;14.59;55.62;98059.72;4978991;28;20037;-88
2023/11/11 01:17:57;;;;;;;7.60;3.38;;;;;;;14.59;55.46;98057.09;4996268;28;20410;-87
2023/11/11 01:20:22;;;;;;;4.57;2.92;;;;;;;14.58;55.84;98050.22;4978881;28;20572;-88
2023/11/11 01:22:49;;;;;;;6.55;3.33;;;;;;;14.58;55.85;98052.84;4996838;28;20058;-89
2023/11/11 01:25:14;;;;;;;6.82;2.95;;;;;;;14.51;55.66;98036.06;4963153;28;20034;-88
2023/11/11 01:27:40;;;;;;;6.13;3.53;;;;;;;14.59;55.63;98035.28;4978825;28;20042;-87
2023/11/11 01:30:07;;;;;;;4.35;3.40;;;;;;;14.53;55.73;98039.38;4996332;28;20081;-87
2023/11/11 01:32:33;;;;;;;5.90;3.45;;;;;;;14.57;55.81;98045.94;4978608;28;20038;-87
2023/11/11 01:34:59;;;;;;;6.18;3.50;;;;;;;14.57;55.64;98029.38;4979117;28;20031;-90
2023/11/11 01:37:24;;;;;;;5.57;3.08;;;;;;;14.54;55.81;98019.19;4982724;28;20038;-88
2023/11/11 01:39:50;;;;;;;5.20;3.10;;;;;;;14.57;55.77;98027.56;5004075;28;20021;-87
2023/11/11 01:42:15;;;;;;;6.35;3.40;;;;;;;14.55;55.80;98012.94;5003889;28;20034;-86
2023/11/11 01:44:41;;;;;;;4.60;3.10;;;;;;;14.57;55.90;98016.25;5003048;28;20034;-89
2023/11/11 01:47:06;;;;;;;3.90;2.78;;;;;;;14.56;55.55;98019.84;4998349;28;20050;-86
2023/11/11 01:49:33;;;;;;;5.22;2.90;;;;;;;14.54;55.55;98012.13;4963882;28;20041;-85
2023/11/11 01:51:59;;;;;;;6.47;3.17;;;;;;;14.52;56.00;98008.84;4963599;28;20034;-85
2023/11/11 01:54:25;;;;;;;6.50;2.92;;;;;;;14.52;55.70;98002.78;4963652;28;20034;-85
2023/11/11 01:56:51;;;;;;;5.22;2.90;;;;;;;14.58;55.87;98023.97;4977852;28;20393;-86
2023/11/11 01:59:17;;;;;;;5.05;2.90;;;;;;;14.55;55.83;98026.91;4977949;28;20022;-86
2023/11/11 02:01:47;;;;;;;4.10;2.90;;;;;;;14.56;55.81;98030.34;4978006;28;20548;-85
2023/11/11 02:04:12;;;;;;;5.85;2.80;;;;;;;14.53;55.87;98018.38;4961575;28;20042;-85
2023/11/11 02:06:38;;;;;;;4.93;2.83;;;;;;;14.55;55.66;98015.56;4995715;28;20394;-85
2023/11/11 02:09:04;;;;;;;6.32;2.80;;;;;;;14.49;55.63;97998.66;4977608;28;20402;-86
2023/11/11 02:11:29;;;;;;;4.53;2.88;;;;;;;14.48;55.94;97997.00;4974498;28;20034;-86
2023/11/11 02:13:55;;;;;;;4.43;2.85;;;;;;;14.49;55.71;97993.41;4958547;28;20030;-86
2023/11/11 02:16:20;;;;;;;5.35;3.13;;;;;;;14.49;55.80;98001.28;4961344;28;20070;-86
2023/11/11 02:18:46;;;;;;;6.00;2.83;;;;;;;14.48;55.77;98008.34;4977477;28;20042;-86
2023/11/11 02:21:12;;;;;;;5.20;3.17;;;;;;;14.48;55.97;98005.72;4977802;28;20019;-86
2023/11/11 02:23:38;;;;;;;4.22;2.72;;;;;;;14.46;55.78;98007.66;4995055;28;20051;-76
2023/11/11 02:26:03;;;;;;;3.90;2.80;;;;;;;14.44;55.63;97998.31;4977690;28;20037;-89
2023/11/11 02:28:29;;;;;;;5.13;3.10;;;;;;;14.40;55.78;97984.66;4978697;28;20030;-91
2023/11/11 02:30:55;;;;;;;3.88;2.67;;;;;;;14.42;55.50;97997.63;4995091;28;20105;-93
2023/11/11 02:33:20;;;;;;;5.65;2.60;;;;;;;14.41;55.46;98004.69;4978599;28;20113;-92
2023/11/11 02:35:46;;;;;;;5.03;2.40;;;;;;;14.39;55.79;97997.94;4962594;28;20027;-92
2023/11/11 02:38:15;;;;;;;3.17;2.47;;;;;;;14.40;55.57;98002.22;4980841;28;20038;-89
2023/11/11 02:40:40;;;;;;;5.20;2.83;;;;;;;14.38;55.73;97994.50;4998586;28;20023;-89
2023/11/11 02:43:07;;;;;;;6.22;3.00;;;;;;;14.39;55.67;97992.69;4977179;28;20042;-89
2023/11/11 02:45:33;;;;;;;3.97;2.92;;;;;;;14.34;55.52;97987.94;4978043;28;20084;-90
2023/11/11 02:48:00;;;;;;;4.50;2.80;;;;;;;14.33;55.63;97981.06;4979524;28;20521;-88
2023/11/11 02:50:26;;;;;;;3.75;2.53;;;;;;;14.30;55.68;97974.31;4962935;28;20413;-89
2023/11/11 02:52:51;;;;;;;3.53;2.50;;;;;;;14.33;55.58;97977.56;4975087;28;20042;-91
2023/11/11 02:55:18;;;;;;;4.05;2.45;;;;;;;14.30;55.58;97971.69;4973951;28;20034;-89
2023/11/11 02:57:44;;;;;;;4.57;2.42;;;;;;;14.28;55.49;97963.16;4958014;28;20026;-88
2023/11/11 03:00:10;;;;;;;3.80;2.78;;;;;;;14.26;55.59;97959.03;4958346;28;20121;-88
2023/11/11 03:02:37;;;;;;;5.30;3.80;;;;;;;14.25;55.60;97960.84;4974494;28;20030;-88
2023/11/11 03:05:04;;;;;;;6.07;4.60;;;;;;;14.27;55.57;97974.63;4975131;28;20031;-88
2023/11/11 03:07:29;;;;;;;10.82;6.65;;;;;;;14.19;55.44;97977.22;4957251;28;20532;-89
2023/11/11 03:09:55;;;;;;;14.45;8.10;;;;;;;14.23;55.23;97977.72;4958765;28;20031;-88
2023/11/11 03:12:21;;;;;;;14.27;9.15;;;;;;;14.13;55.39;97972.59;4959985;28;20031;-89
2023/11/11 03:14:46;;;;;;;17.83;9.65;;;;;;;14.17;55.32;97983.59;4970672;28;20081;-88
2023/11/11 03:17:12;;;;;;;16.55;9.60;;;;;;;14.13;55.25;97980.47;4977111;28;20096;-89
2023/11/11 03:19:38;;;;;;;15.98;9.27;;;;;;;14.06;55.13;97979.47;4961833;28;20038;-88
2023/11/11 03:22:04;;;;;;;19.92;9.90;;;;;;;14.07;55.40;97979.31;4979045;28;20078;-88
2023/11/11 03:24:30;;;;;;;15.98;9.57;;;;;;;13.94;55.36;97969.25;4979046;28;20050;-89
2023/11/11 03:26:56;;;;;;;15.77;9.90;;;;;;;14.00;55.12;97975.66;4994915;28;20494;-86
2023/11/11 03:29:21;;;;;;;14.13;9.15;;;;;;;13.98;55.31;97974.16;4977149;28;20039;-87
2023/11/11 03:31:47;;;;;;;14.90;8.50;;;;;;;13.93;54.99;97967.63;4976170;28;20038;-88
2023/11/11 03:34:12;;;;;;;12.15;7.15;;;;;;;13.93;55.15;97972.88;4976291;28;20035;-78
2023/11/11 03:36:38;;;;;;;13.43;6.88;;;;;;;13.87;55.12;97976.09;4993397;28;20041;-78
2023/11/11 03:39:04;;;;;;;9.75;6.07;;;;;;;13.79;54.98;97962.97;4976377;28;20033;-77
2023/11/11 03:41:29;;;;;;;8.43;6.00;;;;;;;13.84;55.15;97968.56;4976015;28;20038;-78
2023/11/11 03:43:55;;;;;;;10.25;6.03;;;;;;;13.76;55.26;97960.66;4993375;28;20034;-78
2023/11/11 03:46:20;;;;;;;9.95;5.70;;;;;;;13.79;55.02;97967.38;4975435;28;20046;-78
2023/11/11 03:48:46;;;;;;;11.80;5.53;;;;;;;13.75;55.10;97959.00;4992579;28;20390;-78
2023/11/11 03:51:11;;;;;;;9.48;5.75;;;;;;;13.69;55.21;97955.19;4975507;28;20096;-78
2023/11/11 03:53:37;;;;;;;8.55;5.10;;;;;;;13.72;54.92;97956.69;4992117;28;20031;-78
2023/11/11 03:56:07;;;;;;;8.32;4.72;;;;;;;13.62;55.03;97941.06;4975624;28;20046;-79
2023/11/11 03:58:33;;;;;;;7.13;4.35;;;;;;;13.66;55.13;97942.41;4993401;28;20022;-78
2023/11/11 04:00:59;;;;;;;7.43;4.30;;;;;;;13.67;55.03;97954.53;4976066;28;20046;-78
2023/11/11 04:03:24;;;;;;;7.28;4.57;;;;;;;13.67;54.81;97949.28;4992953;28;20069;-78
2023/11/11 04:05:50;;;;;;;7.78;4.28;;;;;;;13.65;54.96;97940.75;4973903;28;20039;-81
2023/11/11 04:08:15;;;;;;;6.10;3.75;;;;;;;13.60;54.95;97939.56;4993545;28;20042;-78
2023/11/11 04:10:41;;;;;;;7.13;4.20;;;;;;;13.63;54.70;97947.13;4975768;28;20081;-78
2023/11/11 04:13:06;;;;;;;7.82;3.70;;;;;;;13.60;54.79;97929.06;4975341;28;20070;-78
2023/11/11 04:15:32;;;;;;;6.93;3.80;;;;;;;13.62;54.77;97932.38;4978625;28;20548;-78
2023/11/11 04:17:58;;;;;;;5.13;3.10;;;;;;;13.59;54.92;97919.59;4959899;28;20038;-78
2023/11/11 04:20:23;;;;;;;5.72;3.20;;;;;;;13.59;55.04;97914.34;4978087;28;20031;-78
2023/11/11 04:22:49;;;;;;;5.38;3.38;;;;;;;13.63;55.02;97910.41;4979628;28;20410;-81
2023/11/11 04:25:14;;;;;;;4.80;3.17;;;;;;;13.59;54.83;97895.97;4979740;28;20023;-80
2023/11/11 04:27:43;;;;;;;7.55;3.03;;;;;;;13.59;54.98;97894.16;4979956;28;20406;-79
2023/11/11 04:30:10;;;;;;;5.30;2.97;;;;;;;13.59;54.76;97906.47;4964082;28;20394;-78
2023/11/11 04:32:36;;;;;;;9.13;3.28;;;;;;;13.60;54.98;97906.31;4980027;28;20030;-81
2023/11/11 04:35:02;;;;;;;5.88;2.90;;;;;;;13.64;54.85;97902.38;4963440;28;20544;-80
2023/11/11 04:37:28;;;;;;;4.32;2.83;;;;;;;13.65;54.84;97903.22;4963253;28;20053;-80
2023/11/11 04:39:57;;;;;;;4.30;2.80;;;;;;;13.65;55.15;97911.09;4963601;28;20019;-80
2023/11/11 04:42:24;;;;;;;5.30;2.80;;;;;;;13.61;55.03;97910.56;4979234;28;20042;-80
2023/11/11 04:44:51;;;;;;;7.40;3.55;;;;;;;13.66;55.10;97910.94;4963790;28;20211;-80
2023/11/11 04:47:18;;;;;;;9.87;4.10;;;;;;;13.63;54.90;97898.13;4964034;28;20124;-81
2023/11/11 04:49:44;;;;;;;8.10;4.45;;;;;;;13.67;54.74;97901.25;4997237;28;20269;-80
2023/11/11 04:52:10;;;;;;;10.00;4.97;;;;;;;13.67;55.03;97914.38;4963516;28;20479;-79
2023/11/11 04:54:35;;;;;;;9.27;5.63;;;;;;;13.67;55.13;97909.13;4962614;28;20054;-79
2023/11/11 04:57:01;;;;;;;9.23;5.38;;;;;;;13.68;55.04;97903.72;4963412;28;20037;-80
2023/11/11 04:59:27;;;;;;;10.27;6.10;;;;;;;13.67;54.74;97890.78;4978914;28;20497;-80
2023/11/11 05:01:53;;;;;;;8.90;5.85;;;;;;;13.66;55.00;97896.97;4962761;28;20038;-79
2023/11/11 05:04:22;;;;;;;11.85;6.15;;;;;;;13.64;55.09;97884.03;4963655;28;20049;-80
2023/11/11 05:06:48;;;;;;;8.48;5.72;;;;;;;13.63;54.88;97885.03;4961664;28;20422;-77
2023/11/11 05:09:13;;;;;;;10.65;6.18;;;;;;;13.62;55.04;97906.97;4946389;28;20062;-80
2023/11/11 05:11:41;;;;;;;8.35;5.22;;;;;;;13.63;54.95;97897.28;4959875;28;20023;-78
2023/11/11 05:14:12;;;;;;;6.80;4.82;;;;;;;13.61;55.02;97904.50;4943171;28;20521;-80
2023/11/11 05:16:44;;;;;;;7.45;4.50;;;;;;;13.61;54.83;97917.63;4937269;28;20625;-79
2023/11/11 05:19:10;;;;;;;9.60;4.93;;;;;;;13.57;55.16;97927.59;4945203;28;20655;-80
2023/11/11 05:21:36;;;;;;;7.38;4.70;;;;;;;13.62;54.93;97924.50;4959238;28;20035;-78
2023/11/11 05:24:02;;;;;;;8.38;4.40;;;;;;;13.62;54.88;97930.56;4973332;28;20054;-80
2023/11/11 05:26:27;;;;;;;9.93;4.38;;;;;;;13.58;55.30;97916.13;4949541;28;20040;-78
2023/11/11 05:28:55;;;;;;;5.72;4.22;;;;;;;13.60;55.22;97905.47;4972570;28;20124;-80
2023/11/11 05:31:28;;;;;;;7.07;3.88;;;;;;;13.62;55.21;97898.28;4977617;28;20505;-80
2023/11/11 05:33:55;;;;;;;5.03;3.42;;;;;;;13.68;55.08;97901.09;4958603;28;20047;-81
2023/11/11 05:36:21;;;;;;;5.95;3.83;;;;;;;13.71;55.20;97897.31;4942763;28;20482;-79
2023/11/11 05:38:49;;;;;;;4.78;3.70;;;;;;;13.73;55.08;97898.00;4976032;28;20042;-80
2023/11/11 05:41:15;;;;;;;6.43;3.55;;;;;;;13.70;54.95;97891.25;4959305;28;20031;-79
2023/11/11 05:43:41;;;;;;;5.10;3.60;;;;;;;13.74;54.82;97889.97;4943767;28;20073;-79
2023/11/11 05:46:09;;;;;;;5.07;3.20;;;;;;;13.85;54.51;97886.25;4957757;28;20030;-79
2023/11/11 05:48:38;;;;;;;4.20;3.03;;;;;;;14.34;53.96;97880.28;4937329;28;20038;-83
2023/11/11 05:51:05;;;;;;;4.43;3.17;;;;;;;14.84;52.89;97878.53;4946047;28;20026;-82
2023/11/11 05:53:33;;;;;;;3.92;2.80;;;;;;;15.34;52.33;97888.00;4944911;28;20038;-82
2023/11/11 05:55:59;;;;;;;5.82;3.38;;;;;;;15.97;51.34;97888.13;4958898;28;20379;-82
2023/11/11 05:58:25;;;;;;;4.43;3.10;;;;;;;16.52;51.24;97888.13;4958652;28;20042;-83
2023/11/11 06:00:50;;;;;;;4.40;2.92;;;;;;;16.63;50.46;97883.28;4967852;28;20046;-85
2023/11/11 06:03:16;;;;;;;5.80;3.00;;;;;;;17.28;49.27;97883.69;4957983;28;20034;-84
2023/11/11 06:05:41;;;;;;;6.47;2.88;;;;;;;17.16;49.56;97885.97;4975345;28;20041;-84
2023/11/11 06:08:09;;;;;;;5.18;2.83;;;;;;;17.09;49.30;97881.59;4958638;28;20030;-82
2023/11/11 06:10:38;;;;;;;9.52;3.22;;;;;;;16.94;49.20;97871.84;4975544;28;20023;-82
2023/11/11 06:13:07;;;;;;;8.93;3.10;;;;;;;16.79;49.31;97882.31;4942486;28;20043;-83
2023/11/11 06:15:35;;;;;;;4.93;3.20;;;;;;;16.71;49.59;97885.00;4927249;28;20402;-84
2023/11/11 06:18:01;;;;;;;4.72;2.67;;;;;;;16.69;49.48;97888.84;4958553;28;20101;-82
2023/11/11 06:20:33;;;;;;;5.00;2.53;;;;;;;16.64;49.48;97889.34;4959020;28;20035;-83
2023/11/11 06:22:59;;;;;;;3.60;2.58;;;;;;;16.44;49.91;97868.75;4975660;28;20054;-84
2023/11/11 06:25:24;;;;;;;7.50;2.90;;;;;;;16.42;50.13;97883.91;4942393;28;20380;-84
2023/11/11 06:27:51;;;;;;;5.97;3.58;;;;;;;16.36;50.41;97884.59;4942323;28;20058;-83
2023/11/11 06:30:16;;;;;;;5.28;2.80;;;;;;;16.29;50.51;97886.31;4958326;28;20058;-82
2023/11/11 06:32:43;;;;;;;5.15;2.78;;;;;;;16.16;50.80;97879.00;4957576;28;20047;-81
2023/11/11 06:35:09;;;;;;;5.95;3.22;;;;;;;16.05;51.21;97877.56;4926104;28;20129;-84
2023/11/11 06:37:37;;;;;;;6.70;3.00;;;;;;;15.99;51.42;97886.16;4958112;28;20495;-82
2023/11/11 06:40:04;;;;;;;6.25;3.20;;;;;;;15.89;51.85;97867.09;4958061;28;20026;-83
2023/11/11 06:42:30;;;;;;;3.55;2.72;;;;;;;15.82;52.00;97860.91;4960434;28;20093;-82
2023/11/11 06:44:59;;;;;;;4.35;2.72;;;;;;;15.79;52.23;97858.63;4961461;28;20038;-83
2023/11/11 06:47:25;;;;;;;;;;;;;;;15.76;52.39;97854.47;4993006;28;20030;-82
2023/11/11 06:49:50;;;;;;;6.45;2.85;;;;;;;15.71;52.47;97862.06;4957671;28;20393;-83
2023/11/11 06:52:16;;;;;;;6.45;3.70;;;;;;;15.66;52.75;97869.66;4975645;28;20089;-83
2023/11/11 06:54:43;;;;;;;6.85;4.68;;;;;;;15.63;52.93;97886.59;4974924;28;20037;-82
2023/11/11 06:57:09;;;;;;;8.85;4.50;;;;;;;15.62;52.96;97900.72;4926270;28;20031;-84
2023/11/11 06:59:35;;;;;;;6.72;4.03;;;;;;;15.56;53.20;97899.63;4975749;28;20058;-84
2023/11/11 07:02:02;;;;;;;8.73;4.10;;;;;;;15.54;53.25;97901.59;4976126;28;20121;-83
2023/11/11 07:04:28;;;;;;;7.63;4.63;;;;;;;15.49;53.68;97895.19;4974789;28;20422;-84
2023/11/11 07:06:53;;;;;;;7.63;4.38;;;;;;;15.51;53.56;97903.72;4952160;28;20034;-83
2023/11/11 07:09:20;;;;;;;10.13;6.38;;;;;;;15.43;53.75;97891.41;4986243;28;20042;-84
2023/11/11 07:11:47;;;;;;;14.45;7.35;;;;;;;15.45;53.83;97894.72;4977086;28;20029;-88
2023/11/11 07:14:13;;;;;;;11.00;6.95;;;;;;;15.44;53.95;97900.94;4960727;28;20035;-82
2023/11/11 07:16:39;;;;;;;11.90;7.47;;;;;;;15.37;54.04;97898.19;4972705;28;20108;-86
2023/11/11 07:19:09;;;;;;;10.95;7.60;;;;;;;15.37;54.24;97890.28;4961838;28;20035;-84
2023/11/11 07:21:34;;;;;;;11.63;8.25;;;;;;;15.31;54.57;97884.91;4978453;28;20034;-85
2023/11/11 07:24:02;;;;;;;13.23;8.25;;;;;;;15.33;54.35;97886.34;4975404;28;20074;-87
2023/11/11 07:26:27;;;;;;;12.07;7.47;;;;;;;15.28;54.59;97870.25;4973451;28;20038;-84
2023/11/11 07:28:54;;;;;;;16.05;6.88;;;;;;;15.28;54.44;97861.56;4957600;28;20042;-87
2023/11/11 07:31:22;;;;;;;10.25;6.57;;;;;;;15.27;54.50;97859.91;4975058;28;20187;-85
2023/11/11 07:33:47;;;;;;;9.82;6.65;;;;;;;15.19;54.78;97863.38;4955976;28;20034;-90
2023/11/11 07:36:16;;;;;;;10.60;6.70;;;;;;;15.23;54.90;97861.22;4974835;28;20491;-87
2023/11/11 07:38:41;;;;;;;10.90;6.35;;;;;;;15.25;54.92;97841.69;4995979;28;20054;-86
2023/11/11 07:41:07;;;;;;;13.63;6.03;;;;;;;15.19;55.01;97852.88;4972840;28;20422;-84
2023/11/11 07:43:34;;;;;;;17.83;2.97;;;;;;;15.33;60.58;97853.97;4939929;28;20486;-78
2023/11/11 07:46:00;;;;;;;6.38;3.15;;;;;;;15.51;61.16;97853.75;4973832;28;20051;-88
2023/11/11 07:48:32;;;;;;;6.30;2.80;;;;;;;15.58;60.06;97854.72;4945244;29;20032;-86
2023/11/11 07:51:04;;;;;;;15.90;3.20;;;;;;;15.56;60.31;97818.06;4957777;29;20077;-87
2023/11/11 07:53:31;;;;;;;6.47;2.90;;;;;;;15.79;62.55;97801.53;4959068;28;20043;-80
2023/11/11 07:56:06;;;;;;;5.30;3.15;;;;;;;16.01;62.32;97793.84;4957721;28;20043;-91
2023/11/11 07:58:32;;;;;;;7.75;3.47;;;;;;;16.01;60.99;97807.00;4977738;28;20402;-84
2023/11/11 08:01:01;;;;;;;8.98;3.42;;;;;;;15.91;60.27;97784.38;4954355;29;20027;-86
2023/11/11 08:03:27;;;;;;;10.02;3.65;;;;;;;15.86;59.80;97806.91;4940194;29;20027;-81
2023/11/11 08:05:53;;;;;;;7.47;4.25;;;;;;;15.80;59.41;97818.16;4954433;29;20032;-77
2023/11/11 08:08:19;;;;;;;9.52;3.90;;;;;;;15.81;61.25;97811.88;4954399;29;20038;-77
2023/11/11 08:10:47;;;;;;;7.75;3.75;;;;;;;15.96;61.98;97809.34;4937783;28;20046;-77
2023/11/11 08:13:13;;;;;;;6.28;3.58;;;;;;;15.92;61.77;97803.59;4948286;29;20042;-79
2023/11/11 08:15:39;;;;;;;11.52;4.78;;;;;;;16.10;63.37;97804.16;4956527;28;20039;-79
2023/11/11 08:18:04;;;;;;;10.05;3.95;;;;;;;16.07;62.41;97793.97;4958203;28;20038;-77
2023/11/11 08:20:30;;;;;;;11.25;4.25;;;;;;;16.04;61.57;97793.50;4956336;28;20097;-78
2023/11/11 08:22:55;;;;;;;9.63;4.68;;;;;;;15.91;61.16;97796.72;4936854;29;20060;-78
2023/11/11 08:25:22;;;;;;;13.75;4.80;;;;;;;15.80;61.08;97802.38;4952867;29;20038;-77
2023/11/11 08:27:50;;;;;;;7.78;4.60;;;;;;;15.76;60.76;97796.59;4942438;29;20470;-79
2023/11/11 08:30:16;;;;;;;8.05;4.60;;;;;;;15.71;60.57;97791.03;4956366;28;20023;-77
2023/11/11 08:32:42;;;;;;;11.05;3.70;;;;;;;15.97;66.26;97800.44;4956080;28;20038;-73
2023/11/11 08:35:15;;;;;;;14.93;3.63;;;;;;;16.25;64.93;97792.84;4971442;28;20033;-76
2023/11/11 08:37:44;;;;;;;15.07;3.15;;;;;;;16.55;63.78;97801.66;4955138;28;20062;-74
2023/11/11 08:40:11;;;;;;;8.85;3.00;;;;;;;16.76;62.84;97806.25;4956069;28;20038;-78
2023/11/11 08:42:39;;;;;;;13.75;3.80;;;;;;;16.64;61.96;97797.13;4941194;28;20043;-79
2023/11/11 08:45:06;;;;;;;11.88;3.60;;;;;;;16.56;61.47;97797.22;4961487;28;20037;-86
2023/11/11 08:47:31;;;;;;;8.45;4.25;;;;;;;16.46;61.63;97800.06;4970607;28;20046;-85
2023/11/11 08:49:58;;;;;;;5.70;3.50;;;;;;;16.34;61.82;97793.63;4959098;28;20086;-80
2023/11/11 08:52:23;;;;;;;8.38;4.15;;;;;;;16.23;61.98;97794.84;4955555;28;20043;-82
2023/11/11 08:54:52;;;;;;;6.95;4.05;;;;;;;16.14;62.37;97795.91;4953230;29;20042;-78
2023/11/11 08:57:17;;;;;;;11.00;3.72;;;;;;;16.02;62.61;97785.78;4954253;29;20035;-80
2023/11/11 08:59:43;;;;;;;7.55;3.78;;;;;;;15.98;63.08;97779.22;4966902;28;20043;-81
2023/11/11 09:02:09;;;;;;;9.13;4.25;;;;;;;15.91;63.33;97783.56;4956344;28;20062;-85
2023/11/11 09:04:35;;;;;;;6.30;4.20;;;;;;;15.79;63.69;97780.47;4956124;28;20031;-77
2023/11/11 09:07:02;;;;;;;8.48;4.20;;;;;;;15.72;63.90;97777.69;4974637;28;20541;-76
2023/11/11 09:09:28;;;;;;;10.02;4.35;;;;;;;15.66;64.16;97770.50;4955297;29;20054;-78
2023/11/11 09:11:55;;;;;;;7.05;4.47;;;;;;;15.70;65.25;97774.44;4956624;29;20047;-78
2023/11/11 09:14:21;;;;;;;8.60;3.85;;;;;;;15.65;65.08;97765.41;4956216;29;20031;-79
2023/11/11 09:16:47;;;;;;;9.38;4.40;;;;;;;15.60;65.08;97760.66;4955981;29;20042;-77
2023/11/11 09:19:12;;;;;;;9.35;4.20;;;;;;;15.55;65.11;97747.22;4957201;29;20379;-83
2023/11/11 09:21:38;;;;;;;9.65;4.70;;;;;;;15.50;65.24;97737.22;4957511;28;20039;-83
2023/11/11 09:24:06;;;;;;;10.07;4.72;;;;;;;15.49;65.34;97729.50;4939883;28;20066;-83
2023/11/11 09:26:32;;;;;;;8.75;5.63;;;;;;;15.48;65.41;97722.59;4971781;28;20058;-83
2023/11/11 09:28:59;;;;;;;8.52;4.40;;;;;;;15.52;65.19;97734.41;4971944;28;20074;-83
2023/11/11 09:31:24;;;;;;;8.90;4.28;;;;;;;15.51;65.37;97733.59;4939053;29;20039;-85
2023/11/11 09:33:50;;;;;;;8.13;4.70;;;;;;;15.48;65.39;97739.22;4971748;28;20131;-82
2023/11/11 09:36:18;;;;;;;8.27;4.22;;;;;;;15.45;65.46;97731.66;4972341;28;20039;-83
2023/11/11 09:38:44;;;;;;;9.35;4.35;;;;;;;15.41;65.73;97716.41;4940102;29;20034;-83
2023/11/11 09:41:10;;;;;;;7.28;4.50;;;;;;;15.42;65.65;97710.97;4971526;28;20086;-83
2023/11/11 09:43:36;;;;;;;8.02;4.43;;;;;;;15.43;65.64;97704.69;4971177;28;20106;-81
2023/11/11 09:46:02;;;;;;;8.43;4.53;;;;;;;15.42;65.50;97689.09;4972140;28;20451;-81
2023/11/11 09:48:30;;;;;;;6.70;4.53;;;;;;;15.48;65.44;97694.50;4971600;28;20023;-82
2023/11/11 09:50:57;;;;;;;6.30;4.35;;;;;;;15.48;65.58;97691.03;4939012;29;20126;-81
2023/11/11 09:53:23;;;;;;;8.52;4.75;;;;;;;15.44;65.53;97680.06;4955923;29;20047;-81
2023/11/11 09:55:49;;;;;;;7.05;4.95;;;;;;;15.48;65.58;97680.50;4971308;28;20027;-82
2023/11/11 09:58:14;;;;;;;11.98;5.88;;;;;;;15.46;65.45;97671.97;4970955;28;20043;-82
2023/11/11 10:00:40;;;;;;;12.25;7.13;;;;;;;15.50;65.30;97679.34;4971401;28;20027;-82
2023/11/11 10:03:05;;;;;;;14.13;7.70;;;;;;;15.47;65.36;97663.13;4971243;28;20062;-82
2023/11/11 10:05:30;;;;;;;17.33;8.93;;;;;;;15.52;65.22;97666.03;4971344;28;20042;-82
2023/11/11 10:07:56;;;;;;;12.32;7.95;;;;;;;15.59;64.98;97650.38;4955278;29;20455;-83
2023/11/11 10:10:21;;;;;;;12.40;7.63;;;;;;;15.61;64.81;97627.31;4971394;28;20038;-83
2023/11/11 10:12:47;;;;;;;13.77;7.85;;;;;;;15.58;65.53;97589.06;4970606;28;20046;-82
2023/11/11 10:15:13;;;;;;;10.35;7.03;;;;;;;15.57;65.27;97545.31;4954878;29;20105;-85
2023/11/11 10:17:39;;;;;;;11.40;6.38;;;;;;;15.55;65.52;97518.41;4969989;28;20106;-81
2023/11/11 10:20:16;;;;;;;10.57;7.07;;;;;;;15.49;65.47;97498.88;4970936;28;20027;-82
2023/11/11 10:22:45;;;;;;;11.05;6.50;;;;;;;15.44;64.90;97508.31;4973645;28;20137;-80
2023/11/11 10:25:17;;;;;;;9.95;6.10;;;;;;;15.41;64.76;97546.28;4941758;28;20074;-82
2023/11/11 10:27:53;;;;;;;18.65;8.00;;;;;;;15.35;65.23;97557.50;4958060;28;20058;-86
2023/11/11 10:30:20;;;;;;;23.17;8.32;;;;;;;15.34;65.56;97567.22;4958286;28;20081;-83
2023/11/11 10:32:48;;;;;;;24.50;8.35;;;;;;;15.30;66.10;97596.66;4974334;28;20489;-86
2023/11/11 10:35:20;;;;;;;21.30;9.00;;;;;;;15.29;66.57;97609.00;4959178;28;20034;-86
2023/11/11 10:37:47;;;;;;;15.25;8.02;;;;;;;15.28;66.08;97588.13;4958338;28;20066;-85
2023/11/11 10:40:14;;;;;;;13.43;8.38;;;;;;;15.27;66.58;97587.31;4957611;28;20478;-87
2023/11/11 10:42:42;;;;;;;16.23;8.40;;;;;;;15.27;66.71;97574.16;4974121;28;20458;-86
2023/11/11 10:45:10;;;;;;;12.63;8.43;;;;;;;15.29;66.76;97543.28;4957676;28;20041;-84
2023/11/11 10:47:37;;;;;;;16.38;8.13;;;;;;;15.40;66.58;97530.69;4958278;28;20181;-84
2023/11/11 10:50:04;;;;;;;14.90;9.55;;;;;;;15.50;66.92;97507.59;4957877;28;20497;-82
2023/11/11 10:52:29;;;;;;;13.50;8.65;;;;;;;15.56;66.43;97522.66;4957458;28;20474;-83
2023/11/11 10:54:56;;;;;;;19.95;9.75;;;;;;;15.49;66.94;97530.44;4956996;28;20047;-82
2023/11/11 10:57:23;;;;;;;17.60;9.90;;;;;;;15.49;66.72;97542.78;4940765;28;20046;-82
2023/11/11 10:59:48;;;;;;;16.92;11.25;;;;;;;15.53;66.56;97552.75;4956955;28;20398;-83
2023/11/11 11:02:14;;;;;;;20.50;13.20;;;;;;;15.50;66.67;97534.72;4957379;28;20051;-83
2023/11/11 11:04:43;;;;;;;18.55;13.20;;;;;;;15.56;66.96;97544.53;4973338;28;20117;-81
2023/11/11 11:07:09;;;;;;;17.88;13.07;;;;;;;15.62;66.91;97531.66;4972019;28;20109;-83
2023/11/11 11:09:54;;;;;;;22.52;13.40;;;;;;;15.63;66.89;97543.81;4973163;28;20034;-82
2023/11/11 11:12:38;;;;;;;19.90;13.20;;;;;;;15.63;66.77;97547.25;4960378;28;20409;-85
2023/11/11 11:15:06;;;;;;;24.60;15.68;;;;;;;15.67;66.65;97530.13;4976800;28;20029;-82
2023/11/11 11:17:35;;;;;;;19.80;13.05;;;;;;;15.67;66.64;97524.03;4961569;28;20030;-77
2023/11/11 11:20:04;;;;;;;7.80;4.22;;;;;;;16.02;66.38;97521.72;4992951;28;20524;-80
2023/11/11 11:22:39;;;;;;;7.15;4.88;;;;;;;16.30;65.33;97508.72;4976048;28;20050;-83
2023/11/11 11:25:34;;;;;;;8.00;5.13;;;;;;;16.38;64.59;97503.38;4992239;28;20057;-88
2023/11/11 11:28:15;;;;;;;11.43;6.28;;;;;;;16.32;64.18;97514.66;4989946;28;20100;-79
2023/11/11 11:31:04;;;;;;;13.75;8.57;;;;;;;16.28;64.00;97501.00;4994029;28;20026;-79